AIC133 VOBL-EGLL
Flight info
| Callsign | AIC133 |
|---|---|
| Flight time | N/A |
| Altitude | 32000 |
| Route | VAGPU7B VAGPU Q8 AGELA G208 BBB/N0508F330 G208 APANO/N0505F340 G208 KE B210 NH/N0508F330 G326 ZB/N0507F340 L750 RANAH B449 DOLOS/N0494F360 B449 DUKAN L850 BAKUV N701 LUSAL M11 REBLO UM11 CRM UL746 ODERO DCT OPT/N0489F380 DCT IRLOX DCT EMPOS DCT FOGRE DCT TEKVI DCT BERVA DCT LIKSA DCT RAPET DCT MASEK DCT TORNU DCT BREDA DCT ABNED L980 LOGAN |
| Aircraft | B77W/H-SDE1E2E3FGHIJ2J3J4J5M1RWXY/LB1D1 |
Departure
| Time | 2026-04-30 06:01 |
|---|---|
| Airport | Kempegowda International Airport Bengaluru (VOBL) |
Arrival
| Time | N/A |
|---|---|
| Airport | London Heathrow Airport (EGLL) |
| Time | Latitude | Longitude | Altitude | Speed | Heading |
|---|---|---|---|---|---|
| 2026-04-30 05:19 | 13.20085 | 77.71659 | 3010 ft | 0 kts | 180° |
| 2026-04-30 05:51 | 13.20095 | 77.71659 | 3010 ft | 2 kts | 180° |
| 2026-04-30 05:52 | 13.20110 | 77.71659 | 3010 ft | 2 kts | 180° |
| 2026-04-30 05:52 | 13.20118 | 77.71659 | 3010 ft | 1 kts | 180° |
| 2026-04-30 05:52 | 13.20130 | 77.71659 | 3010 ft | 1 kts | 180° |
| 2026-04-30 05:52 | 13.20149 | 77.71659 | 3010 ft | 2 kts | 177° |
| 2026-04-30 05:53 | 13.20163 | 77.71655 | 3010 ft | 2 kts | 142° |
| 2026-04-30 05:53 | 13.20173 | 77.71644 | 3010 ft | 2 kts | 113° |
| 2026-04-30 05:53 | 13.20176 | 77.71629 | 3010 ft | 2 kts | 87° |
| 2026-04-30 05:53 | 13.20175 | 77.71613 | 3010 ft | 1 kts | 86° |
| 2026-04-30 05:54 | 13.20175 | 77.71609 | 3010 ft | 0 kts | 87° |
| 2026-04-30 05:55 | 13.20175 | 77.71610 | 3009 ft | 0 kts | 87° |
| 2026-04-30 05:56 | 13.20175 | 77.71615 | 3009 ft | 0 kts | 87° |
| 2026-04-30 05:56 | 13.20176 | 77.71637 | 3009 ft | 7 kts | 89° |
| 2026-04-30 05:56 | 13.20175 | 77.71722 | 3009 ft | 16 kts | 90° |
| 2026-04-30 05:56 | 13.20174 | 77.71839 | 3009 ft | 15 kts | 90° |
| 2026-04-30 05:57 | 13.20172 | 77.71939 | 3009 ft | 12 kts | 91° |
| 2026-04-30 05:57 | 13.20171 | 77.72022 | 3009 ft | 10 kts | 91° |
| 2026-04-30 05:57 | 13.20175 | 77.72089 | 3009 ft | 8 kts | 66° |
| 2026-04-30 05:57 | 13.20223 | 77.72110 | 3009 ft | 10 kts | 4° |
| 2026-04-30 05:58 | 13.20316 | 77.72112 | 3009 ft | 14 kts | 1° |
| 2026-04-30 05:58 | 13.20412 | 77.72113 | 3009 ft | 12 kts | 0° |
| 2026-04-30 05:58 | 13.20480 | 77.72115 | 3009 ft | 6 kts | 21° |
| 2026-04-30 05:58 | 13.20505 | 77.72148 | 3009 ft | 8 kts | 75° |
| 2026-04-30 05:59 | 13.20512 | 77.72231 | 3009 ft | 11 kts | 86° |
| 2026-04-30 05:59 | 13.20555 | 77.72283 | 3009 ft | 9 kts | 6° |
| 2026-04-30 05:59 | 13.20614 | 77.72283 | 3009 ft | 7 kts | 359° |
| 2026-04-30 05:59 | 13.20660 | 77.72280 | 3009 ft | 5 kts | 345° |
| 2026-04-30 06:00 | 13.20677 | 77.72261 | 3009 ft | 2 kts | 287° |
| 2026-04-30 06:00 | 13.20683 | 77.72227 | 3009 ft | 2 kts | 271° |
| 2026-04-30 06:00 | 13.20683 | 77.72224 | 3009 ft | 3 kts | 271° |
| 2026-04-30 06:00 | 13.20685 | 77.71947 | 3010 ft | 73 kts | 270° |
| 2026-04-30 06:01 | 13.20688 | 77.71188 | 3010 ft | 138 kts | 272° |
| 2026-04-30 06:01 | 13.20708 | 77.69988 | 3034 ft | 192 kts | 270° |
| 2026-04-30 06:01 | 13.20727 | 77.68576 | 3592 ft | 203 kts | 271° |
| 2026-04-30 06:01 | 13.21053 | 77.67179 | 4415 ft | 202 kts | 296° |
| 2026-04-30 06:02 | 13.21913 | 77.65976 | 4712 ft | 217 kts | 313° |
| 2026-04-30 06:02 | 13.22961 | 77.64777 | 4957 ft | 235 kts | 307° |
| 2026-04-30 06:02 | 13.23904 | 77.63316 | 5297 ft | 251 kts | 301° |
| 2026-04-30 06:02 | 13.24804 | 77.61740 | 5844 ft | 258 kts | 301° |
| 2026-04-30 06:03 | 13.25705 | 77.60143 | 6426 ft | 263 kts | 302° |
| 2026-04-30 06:03 | 13.26654 | 77.58464 | 6849 ft | 278 kts | 302° |
| 2026-04-30 06:03 | 13.27651 | 77.56700 | 7450 ft | 285 kts | 302° |
| 2026-04-30 06:03 | 13.28653 | 77.54942 | 8098 ft | 288 kts | 305° |
| 2026-04-30 06:04 | 13.30068 | 77.53445 | 8629 ft | 290 kts | 331° |